TimeEDT,TemperatureF,Dew PointF,Humidity,Sea Level PressureIn,VisibilityMPH,Wind Direction,Wind SpeedMPH,Gust SpeedMPH,PrecipitationIn,Events,Conditions,WindDirDegrees,DateUTC
12:15 AM,73.4,73.4,100,30.03,10.0,Calm,Calm,-,N/A,Rain,Rain,0,2013-06-18 04:15:00
12:35 AM,73.4,73.4,100,30.03,10.0,Calm,Calm,-,0.01,,Mostly Cloudy,0,2013-06-18 04:35:00
12:55 AM,73.4,73.4,100,30.02,10.0,Calm,Calm,-,0.01,,Scattered Clouds,0,2013-06-18 04:55:00
1:15 AM,73.4,73.4,100,30.01,7.0,ESE,3.5,-,N/A,,Scattered Clouds,120,2013-06-18 05:15:00
1:35 AM,73.4,73.4,100,30.01,10.0,Calm,Calm,-,N/A,,Mostly Cloudy,0,2013-06-18 05:35:00
1:55 AM,73.4,73.4,100,30.01,10.0,Calm,Calm,-,N/A,,Overcast,0,2013-06-18 05:55:00
2:15 AM,73.4,73.4,100,29.99,10.0,Calm,Calm,-,N/A,,Mostly Cloudy,0,2013-06-18 06:15:00
2:35 AM,73.4,73.4,100,30.00,10.0,WSW,3.5,-,N/A,,Mostly Cloudy,240,2013-06-18 06:35:00
2:55 AM,73.4,73.4,100,29.98,10.0,WSW,3.5,-,N/A,,Mostly Cloudy,240,2013-06-18 06:55:00
3:15 AM,73.4,73.4,100,29.98,10.0,Calm,Calm,-,N/A,Rain-Thunderstorm,Light Thunderstorms and Rain,0,2013-06-18 07:15:00
3:35 AM,73.4,73.4,100,29.97,10.0,Calm,Calm,-,0.01,Rain-Thunderstorm,Light Thunderstorms and Rain,0,2013-06-18 07:35:00
3:55 AM,71.6,71.6,100,29.97,10.0,South,3.5,-,0.01,Rain-Thunderstorm,Light Thunderstorms and Rain,180,2013-06-18 07:55:00
4:15 AM,71.6,71.6,100,29.96,10.0,South,10.4,16.1,0.01,Rain-Thunderstorm,Light Thunderstorms and Rain,180,2013-06-18 08:15:00
4:35 AM,71.6,71.6,100,29.95,7.0,South,11.5,-,0.01,Rain-Thunderstorm,Rain,170,2013-06-18 08:35:00
4:55 AM,71.6,71.6,100,29.96,10.0,South,10.4,-,0.02,Rain,Light Rain,180,2013-06-18 08:55:00
5:15 AM,71.6,71.6,100,29.96,10.0,SSE,9.2,-,N/A,Rain-Thunderstorm,Light Thunderstorms and Rain,160,2013-06-18 09:15:00
5:35 AM,71.6,71.6,100,29.96,10.0,South,9.2,-,0.01,Rain,Light Rain,170,2013-06-18 09:35:00
5:55 AM,71.6,71.6,100,29.95,10.0,South,8.1,-,0.01,Rain,Light Rain,180,2013-06-18 09:55:00
6:15 AM,71.6,71.6,100,29.95,10.0,SSW,3.5,-,N/A,,Scattered Clouds,210,2013-06-18 10:15:00
6:35 AM,71.6,71.6,100,29.96,10.0,SSW,3.5,-,0.01,,Clear,210,2013-06-18 10:35:00
6:55 AM,71.6,71.6,100,29.96,10.0,SSW,3.5,-,0.01,,Clear,210,2013-06-18 10:55:00
7:15 AM,71.6,71.6,100,29.96,10.0,South,4.6,-,0.01,,Clear,180,2013-06-18 11:15:00
7:35 AM,71.6,71.6,100,29.96,10.0,South,4.6,-,0.01,,Clear,180,2013-06-18 11:35:00
7:55 AM,73.4,73.4,100,29.96,10.0,South,5.8,-,0.01,,Clear,190,2013-06-18 11:55:00
8:15 AM,77.0,77.0,100,29.96,10.0,South,8.1,-,0.01,,Clear,190,2013-06-18 12:15:00
8:35 AM,78.8,78.8,100,29.96,10.0,SSW,8.1,-,0.01,,Scattered Clouds,200,2013-06-18 12:35:00
8:55 AM,77.0,77.0,100,29.96,10.0,SSW,8.1,-,0.01,,Mostly Cloudy,210,2013-06-18 12:55:00
9:15 AM,78.8,78.8,100,29.97,10.0,SSW,6.9,-,0.01,,Mostly Cloudy,210,2013-06-18 13:15:00
9:35 AM,80.6,78.8,94,29.96,10.0,SW,6.9,-,0.01,,Mostly Cloudy,230,2013-06-18 13:35:00
9:55 AM,82.4,78.8,89,29.96,10.0,SW,10.4,-,0.01,,Scattered Clouds,220,2013-06-18 13:55:00
10:15 AM,82.4,77.0,84,29.96,10.0,SW,9.2,-,0.01,,Scattered Clouds,230,2013-06-18 14:15:00
10:35 AM,82.4,73.4,74,29.96,10.0,SW,11.5,17.3,0.01,,Scattered Clouds,230,2013-06-18 14:35:00
10:55 AM,84.2,73.4,70,29.96,10.0,WSW,12.7,19.6,0.01,,Clear,240,2013-06-18 14:55:00
11:15 AM,84.2,73.4,70,29.96,10.0,WSW,10.4,-,0.01,,Scattered Clouds,240,2013-06-18 15:15:00
11:35 AM,86.0,73.4,66,29.95,10.0,West,11.5,18.4,0.01,,Scattered Clouds,270,2013-06-18 15:35:00
11:55 AM,86.0,73.4,66,29.95,10.0,West,10.4,18.4,0.01,,Scattered Clouds,260,2013-06-18 15:55:00
12:15 PM,86.0,73.4,66,29.95,10.0,West,15.0,18.4,N/A,,Overcast,260,2013-06-18 16:15:00
12:35 PM,86.0,75.2,70,29.95,10.0,West,11.5,-,0.01,,Mostly Cloudy,270,2013-06-18 16:35:00
12:55 PM,86.0,73.4,66,29.95,10.0,West,10.4,-,0.01,,Mostly Cloudy,270,2013-06-18 16:55:00
1:15 PM,86.0,73.4,66,29.94,10.0,West,11.5,19.6,N/A,,Mostly Cloudy,260,2013-06-18 17:15:00
1:35 PM,87.8,73.4,62,29.94,10.0,West,10.4,-,N/A,,Scattered Clouds,260,2013-06-18 17:35:00
1:55 PM,86.0,73.4,66,29.94,10.0,WSW,9.2,-,N/A,,Mostly Cloudy,250,2013-06-18 17:55:00
2:15 PM,87.8,73.4,62,29.93,10.0,West,8.1,-,N/A,,Scattered Clouds,280,2013-06-18 18:15:00
2:35 PM,87.8,73.4,62,29.92,10.0,WSW,8.1,-,0.01,,Mostly Cloudy,250,2013-06-18 18:35:00
2:55 PM,87.8,73.4,62,29.92,10.0,West,9.2,-,0.01,,Mostly Cloudy,280,2013-06-18 18:55:00
3:15 PM,87.8,75.2,66,29.90,10.0,West,4.6,-,N/A,Thunderstorm,Scattered Clouds,260,2013-06-18 19:15:00
3:35 PM,87.8,73.4,62,29.90,10.0,West,11.5,-,N/A,Thunderstorm,Scattered Clouds,260,2013-06-18 19:35:00
3:55 PM,89.6,73.4,59,29.90,10.0,SW,8.1,-,N/A,Thunderstorm,Mostly Cloudy,230,2013-06-18 19:55:00
4:15 PM,89.6,73.4,59,29.89,10.0,West,10.4,-,N/A,,Mostly Cloudy,260,2013-06-18 20:15:00
4:35 PM,87.8,77.0,70,29.89,10.0,South,9.2,18.4,N/A,,Mostly Cloudy,190,2013-06-18 20:35:00
4:55 PM,84.2,77.0,79,29.90,10.0,South,13.8,-,N/A,,Mostly Cloudy,190,2013-06-18 20:55:00
5:15 PM,86.0,77.0,74,29.90,10.0,SSW,13.8,18.4,N/A,,Mostly Cloudy,200,2013-06-18 21:15:00
5:35 PM,86.0,78.8,79,29.89,10.0,SSW,9.2,-,N/A,,Scattered Clouds,200,2013-06-18 21:35:00
5:55 PM,84.2,77.0,79,29.87,10.0,South,9.2,-,N/A,,Mostly Cloudy,190,2013-06-18 21:55:00
6:15 PM,82.4,77.0,84,29.88,10.0,SSW,16.1,24.2,N/A,Thunderstorm,Scattered Clouds,200,2013-06-18 22:15:00
6:35 PM,77.0,69.8,78,29.89,10.0,SSW,12.7,23.0,N/A,Rain,Light Rain,210,2013-06-18 22:35:00
6:55 PM,73.4,69.8,88,29.89,10.0,WSW,9.2,-,N/A,Rain,Light Rain,240,2013-06-18 22:55:00
7:15 PM,73.4,69.8,88,29.89,10.0,SSW,6.9,-,N/A,Rain,Light Rain,210,2013-06-18 23:15:00
7:35 PM,73.4,71.6,94,29.89,10.0,SSW,5.8,-,N/A,,Scattered Clouds,210,2013-06-18 23:35:00
7:55 PM,73.4,69.8,88,29.90,10.0,SSW,6.9,-,N/A,,Clear,210,2013-06-18 23:55:00
8:15 PM,73.4,69.8,88,29.90,10.0,WSW,5.8,-,N/A,,Clear,240,2013-06-19 00:15:00
8:35 PM,73.4,69.8,88,29.89,10.0,SSW,5.8,-,N/A,,Clear,210,2013-06-19 00:35:00
8:55 PM,73.4,69.8,88,29.90,10.0,SW,4.6,-,N/A,,Clear,220,2013-06-19 00:55:00
9:15 PM,73.4,69.8,88,29.90,10.0,SSW,3.5,-,N/A,,Clear,210,2013-06-19 01:15:00
9:35 PM,73.4,69.8,88,29.89,10.0,SSW,4.6,-,N/A,,Clear,200,2013-06-19 01:35:00
9:55 PM,73.4,69.8,88,29.89,10.0,SSW,5.8,-,N/A,,Clear,210,2013-06-19 01:55:00
10:15 PM,73.4,69.8,88,29.90,10.0,SW,5.8,-,N/A,,Clear,220,2013-06-19 02:15:00
10:35 PM,73.4,69.8,88,29.91,10.0,SSW,4.6,-,N/A,,Clear,210,2013-06-19 02:35:00
10:55 PM,73.4,71.6,94,29.91,10.0,SSW,6.9,-,N/A,,Clear,210,2013-06-19 02:55:00
11:15 PM,73.4,73.4,100,29.92,10.0,SSW,6.9,-,N/A,,Clear,210,2013-06-19 03:15:00
11:35 PM,75.2,75.2,100,29.92,10.0,SSW,8.1,-,N/A,,Clear,210,2013-06-19 03:35:00
11:55 PM,75.2,75.2,100,29.92,10.0,SSW,9.2,-,N/A,,Clear,200,2013-06-19 03:55:00